Time;durP1;ratioP1;P1;durP2;ratioP2;P2;SDS_P1;SDS_P2;PMS_P1;PMS_P2;Temp;Humidity;BMP_temperature;BMP_pressure;BME280_temperature;BME280_humidity;BME280_pressure;Samples;Min_cycle;Max_cycle;Signal;HPM_P1;HPM_P2
2024/01/18 00:02:26;;;;;;;5.67;1.17;;;;;8.20;91373.00;;;;7396006;19;20497;-76
2024/01/18 00:04:53;;;;;;;2.00;1.00;;;;;8.40;91377.00;;;;7398127;19;20121;-75
2024/01/18 00:07:29;;;;;;;1.90;1.00;;;;;8.40;91375.00;;;;7397092;19;20144;-77
2024/01/18 00:09:57;;;;;;;2.23;0.97;;;;;8.40;91372.00;;;;7394743;19;20165;-75
2024/01/18 00:12:31;;;;;;;0.73;0.70;;;;;8.30;91361.00;;;;7396513;19;20783;-74
2024/01/18 00:14:59;;;;;;;2.03;0.90;;;;;8.40;91362.00;;;;7396363;19;20133;-79
2024/01/18 00:17:33;;;;;;;1.97;0.87;;;;;8.40;91368.00;;;;7397386;19;20125;-76
2024/01/18 00:20:00;;;;;;;5.13;1.08;;;;;8.30;91374.00;;;;7398737;19;20136;-75
2024/01/18 00:22:35;;;;;;;1.83;0.80;;;;;8.40;91364.00;;;;7395088;19;20176;-75
2024/01/18 00:25:09;;;;;;;2.53;0.90;;;;;8.30;91366.00;;;;7400432;19;20129;-77
2024/01/18 00:27:44;;;;;;;1.97;0.87;;;;;8.40;91377.00;;;;7404507;19;20477;-75
2024/01/18 00:30:18;;;;;;;2.60;0.90;;;;;8.20;91385.00;;;;7402319;19;20173;-76
2024/01/18 00:32:46;;;;;;;1.90;0.97;;;;;8.20;91393.00;;;;7403829;19;20137;-75
2024/01/18 00:35:20;;;;;;;1.07;0.73;;;;;8.00;91399.00;;;;7405564;19;20133;-78
2024/01/18 00:37:48;;;;;;;2.07;0.70;;;;;7.90;91395.00;;;;7404224;19;20155;-76
2024/01/18 00:40:23;;;;;;;3.57;0.90;;;;;7.80;91390.00;;;;7403377;19;20204;-76
2024/01/18 00:42:57;;;;;;;1.70;1.10;;;;;7.80;91401.00;;;;7402249;19;20168;-76
2024/01/18 00:45:37;;;;;;;2.80;0.90;;;;;7.80;91404.00;;;;7403574;19;20140;-76
2024/01/18 00:48:05;;;;;;;2.03;0.80;;;;;7.70;91399.00;;;;7402854;19;20137;-80
2024/01/18 00:50:39;;;;;;;1.77;0.80;;;;;7.70;91406.00;;;;7401817;19;20625;-80
2024/01/18 00:53:07;;;;;;;1.53;0.90;;;;;7.60;91401.00;;;;7403810;19;20133;-81
2024/01/18 00:55:41;;;;;;;2.37;1.13;;;;;7.70;91414.00;;;;7403997;19;20593;-80
2024/01/18 00:58:15;;;;;;;3.27;0.93;;;;;7.70;91415.00;;;;7403922;19;20161;-80
2024/01/18 01:00:42;;;;;;;2.10;0.77;;;;;7.70;91408.00;;;;7403967;19;20157;-81
2024/01/18 01:03:17;;;;;;;1.33;0.90;;;;;7.80;91409.00;;;;7405219;19;20140;-80
2024/01/18 01:05:44;;;;;;;1.70;1.10;;;;;7.70;91402.00;;;;7404078;19;20161;-81
2024/01/18 01:08:19;;;;;;;1.60;0.90;;;;;7.80;91404.00;;;;7403689;19;20199;-79
2024/01/18 01:10:53;;;;;;;1.50;0.80;;;;;7.80;91411.00;;;;7401140;19;20482;-80
2024/01/18 01:13:27;;;;;;;1.93;0.90;;;;;7.80;91412.00;;;;7403387;19;20630;-82
2024/01/18 01:16:01;;;;;;;4.50;1.00;;;;;7.70;91408.00;;;;7404247;19;20152;-80
2024/01/18 01:18:28;;;;;;;2.67;1.03;;;;;7.80;91395.00;;;;7403660;19;20137;-80
2024/01/18 01:21:04;;;;;;;3.80;1.27;;;;;7.80;91395.00;;;;7402975;19;20207;-80
2024/01/18 01:23:44;;;;;;;3.03;0.90;;;;;7.90;91392.00;;;;7403100;19;20612;-81
2024/01/18 01:26:18;;;;;;;3.87;1.23;;;;;7.80;91409.00;;;;7395859;19;20152;-82
2024/01/18 01:28:53;;;;;;;2.35;1.05;;;;;7.90;91396.00;;;;7404622;19;20153;-81
2024/01/18 01:31:20;;;;;;;2.80;1.10;;;;;7.90;91407.00;;;;7403253;19;20150;-82
2024/01/18 01:33:55;;;;;;;2.93;1.10;;;;;7.90;91400.00;;;;7401258;19;20136;-80
2024/01/18 01:36:29;;;;;;;1.90;0.70;;;;;7.80;91409.00;;;;7403013;19;20620;-82
2024/01/18 01:39:03;;;;;;;1.40;0.87;;;;;7.80;91406.00;;;;7402810;19;20149;-82
2024/01/18 01:41:38;;;;;;;2.13;0.90;;;;;7.80;91395.00;;;;7401720;19;20614;-82
2024/01/18 01:44:12;;;;;;;2.20;0.77;;;;;8.00;91392.00;;;;7400645;19;20172;-81
2024/01/18 01:46:53;;;;;;;3.37;1.00;;;;;8.10;91398.00;;;;7405219;19;20137;-80
2024/01/18 01:49:21;;;;;;;5.37;1.10;;;;;8.10;91411.00;;;;7405866;19;20150;-81
2024/01/18 01:51:56;;;;;;;2.13;0.70;;;;;8.00;91399.00;;;;7402071;19;20153;-81
2024/01/18 01:54:32;;;;;;;1.20;0.63;;;;;8.10;91391.00;;;;7403005;19;20144;-81
2024/01/18 01:57:09;;;;;;;1.67;0.90;;;;;8.00;91394.00;;;;7402697;19;20617;-79
2024/01/18 01:59:36;;;;;;;3.20;0.97;;;;;8.00;91380.00;;;;7402700;19;20593;-76
2024/01/18 02:02:13;;;;;;;2.87;0.87;;;;;8.10;91376.00;;;;7400012;19;20628;-76
2024/01/18 02:04:47;;;;;;;2.43;1.17;;;;;8.10;91384.00;;;;7401496;19;20600;-78
2024/01/18 02:07:24;;;;;;;4.23;1.07;;;;;7.90;91385.00;;;;7401444;19;20477;-77
2024/01/18 02:09:55;;;;;;;1.57;0.80;;;;;8.00;91380.00;;;;7399861;19;20144;-76
2024/01/18 02:12:33;;;;;;;2.83;0.90;;;;;7.80;91395.00;;;;7399374;19;20158;-75
2024/01/18 02:15:08;;;;;;;3.67;0.90;;;;;7.80;91391.00;;;;7400085;19;20138;-76
2024/01/18 02:17:44;;;;;;;2.00;0.80;;;;;7.70;91396.00;;;;7400345;19;20613;-75
2024/01/18 02:20:18;;;;;;;2.73;0.97;;;;;7.70;91396.00;;;;7401727;19;20655;-75
2024/01/18 02:22:53;;;;;;;4.37;1.20;;;;;7.70;91397.00;;;;7400214;19;20632;-77
2024/01/18 02:25:28;;;;;;;3.63;1.10;;;;;7.60;91392.00;;;;7399290;19;20612;-77
2024/01/18 02:28:02;;;;;;;2.80;0.70;;;;;7.60;91392.00;;;;7399211;19;20144;-76
2024/01/18 02:30:36;;;;;;;6.00;1.10;;;;;7.60;91388.00;;;;7398464;19;20215;-76
2024/01/18 02:33:10;;;;;;;1.47;0.80;;;;;7.50;91399.00;;;;7398448;19;20141;-77
2024/01/18 02:35:44;;;;;;;4.53;1.10;;;;;7.50;91396.00;;;;7398762;19;20169;-75
2024/01/18 02:38:12;;;;;;;1.43;0.80;;;;;7.40;91402.00;;;;7397082;19;20184;-76
2024/01/18 02:40:40;;;;;;;2.77;0.90;;;;;7.60;91404.00;;;;7392334;19;20129;-79
2024/01/18 02:43:27;;;;;;;2.00;0.90;;;;;7.50;91400.00;;;;7397639;19;20164;-75
2024/01/18 02:46:02;;;;;;;1.40;0.83;;;;;7.60;91405.00;;;;7398751;19;20476;-76
2024/01/18 02:48:36;;;;;;;2.80;0.90;;;;;7.60;91400.00;;;;7396756;19;20465;-77
2024/01/18 02:51:06;;;;;;;3.87;0.80;;;;;7.50;91404.00;;;;7399309;19;20158;-74
2024/01/18 02:53:42;;;;;;;1.43;0.53;;;;;7.60;91398.00;;;;7397941;19;20177;-77
2024/01/18 02:56:10;;;;;;;3.70;0.70;;;;;7.60;91399.00;;;;7397874;19;20484;-77
2024/01/18 02:58:44;;;;;;;1.10;0.60;;;;;7.70;91393.00;;;;7399270;19;20136;-77
2024/01/18 03:01:19;;;;;;;1.37;1.07;;;;;7.50;91396.00;;;;7397871;19;20146;-77
2024/01/18 03:03:53;;;;;;;2.17;0.87;;;;;7.60;91393.00;;;;7397463;19;20663;-77
2024/01/18 03:06:27;;;;;;;1.13;0.60;;;;;7.50;91391.00;;;;7397813;19;20143;-77
2024/01/18 03:09:01;;;;;;;3.70;0.87;;;;;7.50;91390.00;;;;7398162;19;20140;-80
2024/01/18 03:11:35;;;;;;;3.17;0.87;;;;;7.50;91399.00;;;;7396410;19;20151;-78
2024/01/18 03:14:09;;;;;;;2.83;0.63;;;;;7.60;91398.00;;;;7400059;19;20608;-81
2024/01/18 03:16:42;;;;;;;2.80;1.23;;;;;7.40;91390.00;;;;7398513;19;20157;-80
2024/01/18 03:19:17;;;;;;;3.17;0.90;;;;;7.40;91386.00;;;;7397641;19;20600;-80
2024/01/18 03:21:45;;;;;;;3.37;0.80;;;;;7.50;91391.00;;;;7398707;19;20137;-78
2024/01/18 03:24:21;;;;;;;2.63;0.90;;;;;7.60;91389.00;;;;7398931;19;20143;-80
2024/01/18 03:26:48;;;;;;;2.97;1.00;;;;;7.60;91390.00;;;;7397164;19;20193;-79
2024/01/18 03:29:22;;;;;;;2.10;0.83;;;;;7.60;91387.00;;;;7396987;19;20148;-79
2024/01/18 03:31:50;;;;;;;3.57;0.73;;;;;7.60;91387.00;;;;7395879;19;20140;-80
2024/01/18 03:34:17;;;;;;;2.83;0.80;;;;;7.40;91384.00;;;;7398024;19;20140;-79
2024/01/18 03:36:53;;;;;;;4.17;0.90;;;;;7.40;91392.00;;;;7399835;19;20149;-80
2024/01/18 03:39:33;;;;;;;3.17;1.10;;;;;7.40;91380.00;;;;7398329;19;20135;-80
2024/01/18 03:42:01;;;;;;;3.33;0.80;;;;;7.50;91375.00;;;;7398928;19;20133;-80
2024/01/18 03:44:42;;;;;;;3.87;1.03;;;;;7.40;91382.00;;;;7395749;19;20203;-78
2024/01/18 03:47:16;;;;;;;2.10;0.70;;;;;7.40;91386.00;;;;7398519;19;20204;-79
2024/01/18 03:49:51;;;;;;;2.77;0.90;;;;;7.40;91376.00;;;;7398670;19;20198;-80
2024/01/18 03:52:18;;;;;;;1.93;0.70;;;;;7.40;91368.00;;;;7396620;19;20144;-79
2024/01/18 03:54:59;;;;;;;3.23;0.93;;;;;7.50;91362.00;;;;7396252;19;20153;-79
2024/01/18 03:57:26;;;;;;;1.43;0.70;;;;;7.40;91361.00;;;;7398712;19;20577;-78
2024/01/18 04:00:05;;;;;;;1.77;0.83;;;;;7.50;91370.00;;;;7399334;19;20132;-79
2024/01/18 04:02:43;;;;;;;1.57;0.70;;;;;7.40;91365.00;;;;7406549;19;20136;-79
2024/01/18 04:05:17;;;;;;;3.23;1.10;;;;;7.30;91362.00;;;;7406519;19;20561;-78
2024/01/18 04:07:53;;;;;;;2.57;0.90;;;;;7.40;91358.00;;;;7405846;19;20124;-79
2024/01/18 04:10:21;;;;;;;2.50;0.80;;;;;7.10;91361.00;;;;7403986;19;20563;-79
2024/01/18 04:12:55;;;;;;;2.43;1.07;;;;;7.30;91353.00;;;;7404539;19;20136;-78
2024/01/18 04:15:22;;;;;;;3.30;0.97;;;;;7.30;91363.00;;;;7404586;19;20133;-77
2024/01/18 04:17:57;;;;;;;3.07;1.00;;;;;7.30;91356.00;;;;7404153;19;20151;-80
2024/01/18 04:20:27;;;;;;;3.60;1.10;;;;;7.40;91366.00;;;;7405179;19;20180;-78
2024/01/18 04:23:01;;;;;;;2.60;1.00;;;;;7.40;91364.00;;;;7403527;19;20494;-78
2024/01/18 04:25:29;;;;;;;2.60;0.90;;;;;7.30;91357.00;;;;7403797;19;20140;-80
2024/01/18 04:28:04;;;;;;;3.97;1.20;;;;;7.00;91359.00;;;;7405214;19;20483;-79
2024/01/18 04:30:38;;;;;;;1.63;0.87;;;;;7.10;91369.00;;;;7403751;19;20182;-83
2024/01/18 04:33:14;;;;;;;3.80;0.80;;;;;7.00;91363.00;;;;7403308;19;20521;-80
2024/01/18 04:35:42;;;;;;;2.30;0.87;;;;;6.80;91369.00;;;;7403332;19;20145;-82
2024/01/18 04:38:17;;;;;;;1.63;0.90;;;;;6.90;91366.00;;;;7402963;19;20613;-82
2024/01/18 04:40:51;;;;;;;3.03;0.90;;;;;6.90;91369.00;;;;7404158;19;20147;-81
2024/01/18 04:43:25;;;;;;;3.53;0.97;;;;;7.10;91365.00;;;;7402273;19;20198;-81
2024/01/18 04:46:09;;;;;;;2.77;1.00;;;;;7.10;91358.00;;;;7403922;19;20161;-82
2024/01/18 04:48:44;;;;;;;4.53;0.97;;;;;7.10;91357.00;;;;7403536;19;20145;-82
2024/01/18 04:51:20;;;;;;;2.00;0.70;;;;;7.10;91361.00;;;;7401377;19;20197;-81
2024/01/18 04:53:48;;;;;;;2.93;1.10;;;;;7.10;91364.00;;;;7402483;19;20137;-80
2024/01/18 04:56:22;;;;;;;1.60;0.87;;;;;7.10;91352.00;;;;7403031;19;20144;-81
2024/01/18 04:58:50;;;;;;;2.30;0.80;;;;;7.00;91359.00;;;;7404357;19;20513;-81
2024/01/18 05:01:25;;;;;;;4.87;1.00;;;;;7.20;91361.00;;;;7404684;19;20136;-81
2024/01/18 05:03:52;;;;;;;2.07;0.80;;;;;7.10;91368.00;;;;7403124;19;20616;-80
2024/01/18 05:06:27;;;;;;;2.97;0.73;;;;;7.20;91377.00;;;;7401737;19;20124;-81
2024/01/18 05:08:55;;;;;;;2.27;0.70;;;;;7.00;91375.00;;;;7402645;19;20137;-81
2024/01/18 05:11:29;;;;;;;3.70;0.80;;;;;7.00;91365.00;;;;7399638;19;20140;-82
2024/01/18 05:13:57;;;;;;;2.47;0.87;;;;;7.00;91372.00;;;;7404109;19;20141;-83
2024/01/18 05:16:33;;;;;;;1.40;0.67;;;;;7.10;91367.00;;;;7402715;19;20137;-82
2024/01/18 05:19:08;;;;;;;0.40;0.40;;;;;7.10;91369.00;;;;7403314;19;20144;-80
2024/01/18 05:21:37;;;;;;;0.90;0.60;;;;;6.90;91367.00;;;;7402325;19;20148;-81
2024/01/18 05:24:11;;;;;;;1.40;0.37;;;;;7.10;91360.00;;;;7402186;19;20128;-80
2024/01/18 05:26:45;;;;;;;1.00;0.47;;;;;6.90;91366.00;;;;7402946;19;20548;-80
2024/01/18 05:29:19;;;;;;;3.33;0.60;;;;;6.90;91367.00;;;;7402561;19;20128;-80
2024/01/18 05:31:47;;;;;;;0.77;0.60;;;;;7.00;91367.00;;;;7400016;19;20636;-79
2024/01/18 05:34:15;;;;;;;1.20;0.60;;;;;6.90;91370.00;;;;7400536;19;20593;-81
2024/01/18 05:36:49;;;;;;;1.63;0.33;;;;;6.80;91368.00;;;;7400424;19;20616;-80
2024/01/18 05:39:38;;;;;;;5.67;0.67;;;;;6.70;91372.00;;;;7398564;19;20139;-81
2024/01/18 05:42:12;;;;;;;1.17;0.40;;;;;6.50;91378.00;;;;7401175;19;20141;-81
2024/01/18 05:44:54;;;;;;;3.67;1.73;;;;;6.50;91373.00;;;;7400315;19;20161;-81
2024/01/18 05:47:24;;;;;;;12.87;1.50;;;;;5.50;91372.00;;;;7401710;19;20132;-81
2024/01/18 05:49:59;;;;;;;2.47;1.20;;;;;5.10;91367.00;;;;7401399;19;20155;-83
2024/01/18 05:52:34;;;;;;;11.73;6.27;;;;;5.00;91363.00;;;;7400229;19;20216;-82
2024/01/18 05:55:03;;;;;;;7.03;4.17;;;;;4.80;91372.00;;;;7401900;19;20144;-81
2024/01/18 05:57:41;;;;;;;60.53;2.93;;;;;4.60;91370.00;;;;7402116;19;20616;-82
2024/01/18 06:00:10;;;;;;;65.13;4.47;;;;;4.20;91370.00;;;;7401358;19;20144;-81
2024/01/18 06:02:44;;;;;;;68.33;4.47;;;;;4.00;91375.00;;;;7401531;19;20505;-82
2024/01/18 06:05:15;;;;;;;297.67;12.53;;;;;3.70;91359.00;;;;7401809;19;20510;-80
2024/01/18 06:07:49;;;;;;;239.23;9.43;;;;;3.70;91360.00;;;;7401468;19;20141;-82
2024/01/18 06:10:17;;;;;;;965.17;34.63;;;;;3.60;91357.00;;;;7399952;19;20149;-80
2024/01/18 06:12:51;;;;;;;1139.77;42.80;;;;;3.50;91362.00;;;;7398814;19;20169;-80
2024/01/18 06:15:27;;;;;;;487.23;20.40;;;;;3.30;91364.00;;;;7401379;19;20131;-80
2024/01/18 06:18:04;;;;;;;113.43;5.33;;;;;3.20;91360.00;;;;7399228;19;20144;-80
2024/01/18 06:20:38;;;;;;;103.50;5.20;;;;;3.30;91358.00;;;;7401558;19;20137;-81
2024/01/18 06:23:06;;;;;;;34.07;3.90;;;;;3.20;91351.00;;;;7398195;19;20149;-80
2024/01/18 06:25:40;;;;;;;81.97;4.83;;;;;3.20;91353.00;;;;7399881;19;20141;-82
2024/01/18 06:28:10;;;;;;;55.07;3.73;;;;;3.30;91359.00;;;;7399054;19;20137;-81
2024/01/18 06:30:44;;;;;;;3.70;2.20;;;;;3.30;91359.00;;;;7399711;19;20144;-81
2024/01/18 06:33:13;;;;;;;7.03;2.17;;;;;3.00;91360.00;;;;7399465;19;20136;-79
2024/01/18 06:35:47;;;;;;;2.70;1.73;;;;;3.00;91365.00;;;;7399081;19;20137;-80
2024/01/18 06:38:15;;;;;;;1.67;1.47;;;;;2.90;91353.00;;;;7401941;19;20129;-82
2024/01/18 06:40:49;;;;;;;2.67;1.80;;;;;3.10;91352.00;;;;7399262;19;20147;-80
2024/01/18 06:43:23;;;;;;;2.53;1.60;;;;;3.10;91356.00;;;;7398625;19;20147;-81
2024/01/18 06:46:04;;;;;;;2.33;1.57;;;;;3.00;91351.00;;;;7399040;19;20137;-81
2024/01/18 06:48:31;;;;;;;3.97;1.30;;;;;3.00;91341.00;;;;7399742;19;20695;-81
2024/01/18 06:51:05;;;;;;;2.43;1.60;;;;;3.00;91346.00;;;;7398450;19;20612;-79
2024/01/18 06:53:33;;;;;;;1.43;1.20;;;;;3.10;91340.00;;;;7397000;19;20616;-78
2024/01/18 06:56:12;;;;;;;1.73;1.50;;;;;3.10;91345.00;;;;7397985;19;20175;-77
2024/01/18 06:58:42;;;;;;;1.80;1.53;;;;;3.00;91343.00;;;;7398161;19;20811;-76
2024/01/18 07:01:17;;;;;;;4.17;1.63;;;;;3.00;91341.00;;;;7399166;19;20211;-78
2024/01/18 07:03:45;;;;;;;1.63;1.40;;;;;3.10;91337.00;;;;7389936;19;20158;-78
2024/01/18 07:06:20;;;;;;;1.67;1.57;;;;;3.10;91339.00;;;;7387844;19;20174;-80
2024/01/18 07:09:00;;;;;;;4.03;1.40;;;;;3.10;91333.00;;;;7391229;19;20236;-80
2024/01/18 07:11:38;;;;;;;5.37;1.63;;;;;3.10;91341.00;;;;7390165;19;20148;-77
2024/01/18 07:14:06;;;;;;;3.97;1.67;;;;;3.00;91341.00;;;;7390397;19;20140;-76
2024/01/18 07:16:40;;;;;;;11.17;1.97;;;;;3.10;91337.00;;;;7391578;19;20130;-77
2024/01/18 07:19:14;;;;;;;3.43;1.90;;;;;3.10;91343.00;;;;7390992;19;20148;-77
2024/01/18 07:21:48;;;;;;;7.97;2.20;;;;;2.80;91342.00;;;;7394352;19;20139;-78
2024/01/18 07:24:27;;;;;;;2.93;2.13;;;;;2.70;91342.00;;;;7393695;19;20467;-80
2024/01/18 07:27:01;;;;;;;10.17;2.47;;;;;2.80;91346.00;;;;7392704;19;20774;-78
2024/01/18 07:29:37;;;;;;;7.90;2.67;;;;;2.70;91346.00;;;;7392585;19;20142;-78
2024/01/18 07:32:11;;;;;;;12.27;2.80;;;;;2.70;91348.00;;;;7391004;19;20152;-77
2024/01/18 07:34:45;;;;;;;7.27;2.57;;;;;2.70;91343.00;;;;7388763;19;20150;-76
2024/01/18 07:37:21;;;;;;;15.40;3.50;;;;;2.70;91356.00;;;;7390916;19;20148;-77
2024/01/18 07:39:55;;;;;;;43.47;4.53;;;;;2.50;91359.00;;;;7388231;19;20149;-77
2024/01/18 07:42:29;;;;;;;13.73;2.60;;;;;2.30;91362.00;;;;7390477;19;20155;-77
2024/01/18 07:45:03;;;;;;;8.17;2.03;;;;;2.50;91353.00;;;;7390014;19;20505;-79
2024/01/18 07:47:53;;;;;;;36.17;4.63;;;;;2.10;91369.00;;;;7389392;19;20140;-78
2024/01/18 07:50:27;;;;;;;27.77;2.70;;;;;2.10;91345.00;;;;7389538;19;20137;-78
2024/01/18 07:53:07;;;;;;;14.57;2.07;;;;;2.10;91348.00;;;;7390494;19;20139;-79
2024/01/18 07:55:45;;;;;;;3.03;1.60;;;;;2.20;91350.00;;;;7391272;19;20152;-78
2024/01/18 07:58:19;;;;;;;10.67;2.00;;;;;2.20;91339.00;;;;7388504;19;20147;-78
2024/01/18 08:00:53;;;;;;;2.37;1.60;;;;;2.30;91353.00;;;;7389729;19;20547;-79
2024/01/18 08:03:28;;;;;;;4.17;1.63;;;;;2.50;91348.00;;;;7389392;19;20140;-79
2024/01/18 08:06:06;;;;;;;5.07;1.70;;;;;2.30;91357.00;;;;7388934;19;20155;-79
2024/01/18 08:08:42;;;;;;;7.33;1.40;;;;;2.10;91349.00;;;;7387294;19;20152;-79
2024/01/18 08:11:11;;;;;;;8.43;1.50;;;;;2.20;91362.00;;;;7388686;19;20208;-79
2024/01/18 08:13:47;;;;;;;28.57;2.23;;;;;1.90;91363.00;;;;7389832;19;20129;-80
2024/01/18 08:16:16;;;;;;;27.23;2.90;;;;;1.80;91367.00;;;;7389584;19;20524;-79
2024/01/18 08:18:51;;;;;;;7.60;1.73;;;;;1.60;91366.00;;;;7388404;19;20158;-79
2024/01/18 08:21:27;;;;;;;11.47;1.80;;;;;1.60;91363.00;;;;7390368;19;20143;-80
2024/01/18 08:24:00;;;;;;;14.10;2.00;;;;;1.70;91373.00;;;;7390736;19;20483;-79
2024/01/18 08:26:36;;;;;;;3.50;1.80;;;;;1.80;91368.00;;;;7391602;19;20681;-79
2024/01/18 08:29:10;;;;;;;2.60;1.60;;;;;1.80;91387.00;;;;7387640;19;20153;-80
2024/01/18 08:31:47;;;;;;;3.33;1.47;;;;;1.60;91389.00;;;;7387832;19;20137;-79
2024/01/18 08:34:15;;;;;;;3.57;1.50;;;;;1.70;91379.00;;;;7388711;19;20141;-80
2024/01/18 08:36:51;;;;;;;29.37;2.57;;;;;1.70;91375.00;;;;7388256;19;20155;-80
2024/01/18 08:39:26;;;;;;;15.40;3.23;;;;;1.80;91380.00;;;;7387641;19;20140;-80
2024/01/18 08:42:02;;;;;;;18.87;2.50;;;;;1.60;91391.00;;;;7388528;19;20154;-80
2024/01/18 08:44:37;;;;;;;49.37;3.27;;;;;1.40;91391.00;;;;7386898;19;20167;-79
2024/01/18 08:47:15;;;;;;;5.60;1.20;;;;;1.10;91396.00;;;;7389510;19;20163;-80
2024/01/18 08:49:50;;;;;;;24.87;2.00;;;;;0.80;91401.00;;;;7393503;19;20172;-79
2024/01/18 08:52:19;;;;;;;62.13;3.90;;;;;0.60;91406.00;;;;7393564;19;20151;-80
2024/01/18 08:54:53;;;;;;;51.40;2.73;;;;;0.30;91417.00;;;;7392663;19;20659;-80
2024/01/18 08:57:21;;;;;;;18.33;1.57;;;;;0.40;91420.00;;;;7392905;19;20510;-79
2024/01/18 08:59:55;;;;;;;55.20;3.60;;;;;0.00;91419.00;;;;7392471;19;20216;-79
2024/01/18 09:02:30;;;;;;;8.60;1.37;;;;;0.00;91422.00;;;;7391981;19;20151;-79
2024/01/18 09:05:09;;;;;;;24.00;2.23;;;;;0.10;91434.00;;;;7391960;19;20604;-79
2024/01/18 09:07:38;;;;;;;8.10;1.40;;;;;-0.20;91441.00;;;;7391023;19;20152;-79
2024/01/18 09:10:19;;;;;;;16.53;2.23;;;;;-0.60;91447.00;;;;7393843;19;20148;-79
2024/01/18 09:12:48;;;;;;;5.50;1.30;;;;;-0.80;91451.00;;;;7393860;19;20663;-79
2024/01/18 09:15:24;;;;;;;1.40;0.93;;;;;-0.50;91434.00;;;;7392718;19;20484;-79
2024/01/18 09:17:52;;;;;;;1.80;1.17;;;;;-0.20;91446.00;;;;7393765;19;20165;-78
2024/01/18 09:20:27;;;;;;;12.53;1.90;;;;;-0.50;91447.00;;;;7394456;19;20135;-77
2024/01/18 09:23:02;;;;;;;6.30;1.53;;;;;-0.60;91459.00;;;;7391652;19;20148;-78
2024/01/18 09:25:43;;;;;;;2.57;1.43;;;;;-0.60;91461.00;;;;7392594;19;20515;-77
2024/01/18 09:28:19;;;;;;;3.77;1.53;;;;;-0.80;91464.00;;;;7391617;19;20223;-78
2024/01/18 09:30:48;;;;;;;1.40;1.23;;;;;-0.60;91458.00;;;;7392643;19;20137;-78
2024/01/18 09:33:23;;;;;;;9.37;1.47;;;;;-0.70;91452.00;;;;7392104;19;20149;-79
2024/01/18 09:35:52;;;;;;;13.77;1.40;;;;;-1.00;91468.00;;;;7391886;19;20159;-78
2024/01/18 09:38:26;;;;;;;1.10;1.00;;;;;-0.80;91471.00;;;;7391981;19;20128;-77
2024/01/18 09:41:06;;;;;;;1.03;0.93;;;;;-0.70;91491.00;;;;7392231;19;20172;-78
2024/01/18 09:43:48;;;;;;;6.10;1.60;;;;;-1.10;91503.00;;;;7391060;19;20175;-78
2024/01/18 09:46:23;;;;;;;3.20;1.13;;;;;-0.70;91534.00;;;;7391161;19;20168;-77
2024/01/18 09:48:58;;;;;;;9.30;2.13;;;;;-0.90;91546.00;;;;7392463;19;20768;-78
2024/01/18 09:51:31;;;;;;;10.03;1.20;;;;;-1.10;91535.00;;;;7392333;19;20155;-78
2024/01/18 09:54:07;;;;;;;1.00;0.90;;;;;-1.20;91552.00;;;;7392522;19;20152;-78
2024/01/18 09:56:38;;;;;;;0.80;0.80;;;;;-1.50;91566.00;;;;7392912;19;20549;-79
2024/01/18 09:59:19;;;;;;;1.20;1.03;;;;;-1.50;91580.00;;;;7390680;19;20208;-79
2024/01/18 10:01:53;;;;;;;0.90;0.90;;;;;-1.40;91572.00;;;;7391805;19;20501;-79
2024/01/18 10:04:30;;;;;;;0.83;0.80;;;;;-1.40;91569.00;;;;7390987;19;20665;-79
2024/01/18 10:07:04;;;;;;;1.10;1.00;;;;;-1.50;91563.00;;;;7391953;19;20148;-79
2024/01/18 10:09:39;;;;;;;0.67;0.67;;;;;-1.50;91564.00;;;;7391107;19;20619;-78
2024/01/18 10:12:14;;;;;;;0.83;0.83;;;;;-1.50;91570.00;;;;7391016;19;20632;-79
2024/01/18 10:14:50;;;;;;;0.90;0.87;;;;;-1.70;91588.00;;;;7391811;19;20173;-78
2024/01/18 10:17:27;;;;;;;1.13;1.00;;;;;-1.90;91587.00;;;;7391500;19;20145;-79
2024/01/18 10:19:56;;;;;;;0.90;0.90;;;;;-1.70;91598.00;;;;7394664;19;20637;-76
2024/01/18 10:22:31;;;;;;;0.80;0.80;;;;;-1.70;91609.00;;;;7394992;19;20142;-78
2024/01/18 10:24:59;;;;;;;0.87;0.80;;;;;-1.40;91614.00;;;;7395430;19;20136;-78
2024/01/18 10:27:33;;;;;;;0.80;0.80;;;;;-1.50;91608.00;;;;7395399;19;20215;-79
2024/01/18 10:30:03;;;;;;;1.37;1.10;;;;;-1.10;91614.00;;;;7395832;19;20121;-78
2024/01/18 10:32:41;;;;;;;1.70;0.77;;;;;-0.90;91630.00;;;;7393075;19;20156;-77
2024/01/18 10:35:24;;;;;;;0.80;0.80;;;;;-1.00;91631.00;;;;7393702;19;20516;-78
2024/01/18 10:38:03;;;;;;;1.00;0.97;;;;;-0.60;91622.00;;;;7394031;19;20145;-79
2024/01/18 10:40:34;;;;;;;0.70;0.70;;;;;-0.70;91632.00;;;;7395842;19;20149;-78
2024/01/18 10:43:11;;;;;;;1.33;0.80;;;;;-0.80;91623.00;;;;7392744;19;20180;-77
2024/01/18 10:45:52;;;;;;;1.10;1.00;;;;;-1.00;91628.00;;;;7392725;19;20155;-77
2024/01/18 10:48:20;;;;;;;1.00;0.93;;;;;-0.80;91638.00;;;;7392612;19;20535;-77
2024/01/18 10:50:58;;;;;;;0.87;0.87;;;;;-0.70;91648.00;;;;7393373;19;20148;-78
2024/01/18 10:53:32;;;;;;;0.80;0.80;;;;;-0.90;91664.00;;;;7391475;19;20208;-78
2024/01/18 10:56:07;;;;;;;0.97;0.90;;;;;-0.90;91658.00;;;;7391533;19;20136;-78
2024/01/18 10:58:34;;;;;;;1.43;1.30;;;;;-0.90;91661.00;;;;7390651;19;20140;-78
2024/01/18 11:01:09;;;;;;;1.10;1.00;;;;;-1.00;91668.00;;;;7391747;19;20484;-78
2024/01/18 11:03:46;;;;;;;1.20;1.10;;;;;-0.80;91673.00;;;;7391908;19;20559;-78
2024/01/18 11:06:21;;;;;;;1.30;1.20;;;;;-1.20;91686.00;;;;7393776;19;20156;-78
2024/01/18 11:08:50;;;;;;;2.10;1.47;;;;;-1.30;91695.00;;;;7388683;19;20160;-79
2024/01/18 11:11:24;;;;;;;1.70;1.57;;;;;-1.40;91696.00;;;;7388638;19;20152;-78
2024/01/18 11:13:52;;;;;;;1.40;1.30;;;;;-1.30;91695.00;;;;7389090;19;20144;-78
2024/01/18 11:16:27;;;;;;;1.47;1.27;;;;;-1.70;91699.00;;;;7390026;19;20128;-78
2024/01/18 11:18:59;;;;;;;1.30;1.17;;;;;-1.60;91703.00;;;;7388049;19;20602;-77
2024/01/18 11:21:43;;;;;;;0.93;0.93;;;;;-1.20;91707.00;;;;7387833;19;20612;-78
2024/01/18 11:24:11;;;;;;;1.50;1.40;;;;;-1.10;91703.00;;;;7388120;19;20216;-78
2024/01/18 11:26:45;;;;;;;1.30;1.20;;;;;-1.20;91718.00;;;;7388619;19;20619;-76
2024/01/18 11:29:24;;;;;;;1.63;1.50;;;;;-1.60;91716.00;;;;7388384;19;20158;-78
2024/01/18 11:31:59;;;;;;;1.50;1.40;;;;;-1.70;91729.00;;;;7390000;19;20480;-78
2024/01/18 11:34:38;;;;;;;1.93;1.73;;;;;-2.00;91727.00;;;;7389756;19;20136;-77
2024/01/18 11:37:18;;;;;;;2.30;2.07;;;;;-2.00;91728.00;;;;7387095;19;20156;-78
2024/01/18 11:39:49;;;;;;;1.93;1.83;;;;;-2.20;91726.00;;;;7386769;19;20129;-76
2024/01/18 11:42:26;;;;;;;2.83;2.53;;;;;-2.20;91739.00;;;;7386926;19;20649;-78
2024/01/18 11:45:22;;;;;;;2.07;1.80;;;;;-2.30;91743.00;;;;7385821;19;20228;-77
2024/01/18 11:47:53;;;;;;;2.53;2.00;;;;;-2.20;91755.00;;;;7387234;19;20507;-77
2024/01/18 11:50:29;;;;;;;3.20;2.90;;;;;-2.20;91764.00;;;;7387384;19;20180;-78
2024/01/18 11:52:57;;;;;;;3.23;2.80;;;;;-2.00;91764.00;;;;7386869;19;20152;-76
2024/01/18 11:55:32;;;;;;;3.03;2.73;;;;;-2.40;91774.00;;;;7385814;19;20141;-76
2024/01/18 11:58:08;;;;;;;3.13;2.80;;;;;-1.80;91762.00;;;;7386137;19;20132;-77
2024/01/18 12:00:42;;;;;;;3.53;2.90;;;;;-2.00;91785.00;;;;7385763;19;20121;-78
2024/01/18 12:03:13;;;;;;;3.23;2.90;;;;;-2.10;91775.00;;;;7385725;19;20147;-77
2024/01/18 12:05:41;;;;;;;4.30;3.50;;;;;-1.90;91786.00;;;;7386255;19;20137;-77
2024/01/18 12:08:15;;;;;;;7.67;5.20;;;;;-2.00;91787.00;;;;7386317;19;20144;-77
2024/01/18 12:10:49;;;;;;;7.97;5.23;;;;;-1.70;91806.00;;;;7387100;19;20176;-77
2024/01/18 12:13:24;;;;;;;4.23;3.40;;;;;-1.90;91807.00;;;;7385628;19;20151;-77
2024/01/18 12:15:53;;;;;;;3.93;3.10;;;;;-1.90;91814.00;;;;7386456;19;20144;-78
2024/01/18 12:18:22;;;;;;;3.23;2.90;;;;;-2.00;91817.00;;;;7386501;19;20155;-77
2024/01/18 12:21:04;;;;;;;5.70;4.03;;;;;-2.00;91811.00;;;;7389474;19;20152;-77
2024/01/18 12:23:32;;;;;;;5.27;4.27;;;;;-2.10;91816.00;;;;7395611;19;20235;-78
2024/01/18 12:26:06;;;;;;;34.57;14.00;;;;;-2.30;91826.00;;;;7393074;19;20144;-78
2024/01/18 12:28:34;;;;;;;4.10;3.53;;;;;-2.10;91841.00;;;;7392542;19;20145;-77
2024/01/18 12:31:09;;;;;;;6.47;3.50;;;;;-2.20;91844.00;;;;7392242;19;20144;-77
2024/01/18 12:33:43;;;;;;;4.57;3.67;;;;;-2.50;91850.00;;;;7392660;19;20527;-76
2024/01/18 12:36:18;;;;;;;3.77;3.37;;;;;-2.30;91862.00;;;;7393897;19;20125;-77
2024/01/18 12:38:45;;;;;;;3.83;3.30;;;;;-2.50;91857.00;;;;7392531;19;20149;-80
2024/01/18 12:41:21;;;;;;;3.97;3.20;;;;;-2.50;91873.00;;;;7392380;19;20632;-79
2024/01/18 12:43:50;;;;;;;3.93;3.50;;;;;-2.50;91884.00;;;;7393333;19;20259;-78
2024/01/18 12:46:19;;;;;;;4.40;3.40;;;;;-2.50;91902.00;;;;7390984;19;20674;-79
2024/01/18 12:48:53;;;;;;;4.87;3.93;;;;;-2.50;91899.00;;;;7391534;19;20133;-78
2024/01/18 12:51:22;;;;;;;5.07;4.17;;;;;-2.40;91911.00;;;;7393671;19;20592;-78
2024/01/18 12:53:57;;;;;;;5.43;4.77;;;;;-2.40;91908.00;;;;7390384;19;20135;-78
2024/01/18 12:56:25;;;;;;;4.97;4.10;;;;;-2.60;91915.00;;;;7391258;19;20660;-79